createdAt,value
2017-10-10T00:00:02.936Z,9.5
2017-10-10T00:01:05.366Z,9.5
2017-10-10T00:02:07.794Z,9.5
2017-10-10T00:03:10.215Z,9.5
2017-10-10T00:04:12.647Z,9.5
2017-10-10T00:05:15.069Z,9.5
2017-10-10T00:06:17.518Z,9.5
2017-10-10T00:07:19.936Z,9.5
2017-10-10T00:08:22.726Z,9.5
2017-10-10T00:09:25.158Z,9.5
2017-10-10T00:10:27.579Z,9.5
2017-10-10T00:11:30.011Z,9.5
2017-10-10T00:12:32.790Z,9.5
2017-10-10T00:13:35.214Z,9.5
2017-10-10T00:14:37.637Z,9.5
2017-10-10T00:15:40.436Z,9.5
2017-10-10T00:16:42.874Z,9.5
2017-10-10T00:17:45.295Z,9.5
2017-10-10T00:18:47.726Z,9.5
2017-10-10T00:19:50.525Z,9.5
2017-10-10T00:20:52.953Z,9.5
2017-10-10T00:21:55.386Z,9.5
2017-10-10T00:22:57.809Z,9.5
2017-10-10T00:24:00.228Z,9.5
2017-10-10T00:25:03.012Z,9.5
2017-10-10T00:26:05.445Z,9.5
2017-10-10T00:27:07.873Z,9.5
2017-10-10T00:28:10.299Z,9.5
2017-10-10T00:29:12.716Z,9.5
2017-10-10T00:30:15.144Z,9.5
2017-10-10T00:31:17.945Z,9.6
2017-10-10T00:32:20.365Z,9.6
2017-10-10T00:33:22.792Z,9.5
2017-10-10T00:34:25.229Z,9.5
2017-10-10T00:35:27.659Z,9.5
2017-10-10T00:36:30.090Z,9.6
2017-10-10T00:37:32.524Z,9.6
2017-10-10T00:38:34.944Z,9.6
2017-10-10T00:39:37.369Z,9.6
2017-10-10T00:40:39.804Z,9.6
2017-10-10T00:41:42.222Z,9.6
2017-10-10T00:42:44.647Z,9.6
2017-10-10T00:43:47.084Z,9.6
2017-10-10T00:44:50.251Z,9.6
2017-10-10T00:45:52.679Z,9.6
2017-10-10T00:46:55.108Z,9.6
2017-10-10T00:47:57.541Z,9.6
2017-10-10T00:48:59.963Z,9.6
2017-10-10T00:50:03.120Z,9.6
2017-10-10T00:51:05.548Z,9.6
2017-10-10T00:52:07.970Z,9.6
2017-10-10T00:53:10.394Z,9.6
2017-10-10T00:54:12.830Z,9.6
2017-10-10T00:55:15.256Z,9.6
2017-10-10T00:56:18.040Z,9.6
2017-10-10T00:57:21.792Z,9.6
2017-10-10T00:58:24.193Z,9.6
2017-10-10T00:59:26.970Z,9.6
2017-10-10T01:00:29.405Z,9.6
2017-10-10T01:01:31.830Z,9.6
2017-10-10T01:02:34.270Z,9.6
2017-10-10T01:03:36.694Z,9.6
2017-10-10T01:04:39.107Z,9.6
2017-10-10T01:05:41.545Z,9.6
2017-10-10T01:06:43.975Z,9.6
2017-10-10T01:07:46.397Z,9.6
2017-10-10T01:08:48.819Z,9.6
2017-10-10T01:09:51.587Z,9.6
2017-10-10T01:10:54.009Z,9.6
2017-10-10T01:11:57.520Z,9.7
2017-10-10T01:12:59.949Z,9.7
2017-10-10T01:14:02.721Z,9.7
2017-10-10T01:15:05.146Z,9.6
2017-10-10T01:16:07.578Z,9.7
2017-10-10T01:17:09.999Z,9.7
2017-10-10T01:18:12.421Z,9.7
2017-10-10T01:19:14.848Z,9.6
2017-10-10T01:20:17.269Z,9.6
2017-10-10T01:21:19.709Z,9.7
2017-10-10T01:22:22.494Z,9.7
2017-10-10T01:23:24.923Z,9.7
2017-10-10T01:24:27.351Z,9.7
2017-10-10T01:25:29.783Z,9.7
2017-10-10T01:26:32.219Z,9.7
2017-10-10T01:27:34.648Z,9.7
2017-10-10T01:28:37.059Z,9.7
2017-10-10T01:29:39.500Z,9.7
2017-10-10T01:30:41.934Z,9.7
2017-10-10T01:31:44.360Z,9.7
2017-10-10T01:32:46.786Z,9.7
2017-10-10T01:33:49.206Z,9.7
2017-10-10T01:34:51.633Z,9.7
2017-10-10T01:35:54.066Z,9.7
2017-10-10T01:36:56.484Z,9.7
2017-10-10T01:37:58.919Z,9.7
2017-10-10T01:39:01.342Z,9.7
2017-10-10T01:40:03.776Z,9.7
2017-10-10T01:41:06.590Z,9.7
2017-10-10T01:42:09.015Z,9.7
2017-10-10T01:43:11.452Z,9.7
2017-10-10T01:44:14.243Z,9.7
2017-10-10T01:45:16.666Z,9.7
2017-10-10T01:46:19.449Z,9.7
2017-10-10T01:47:21.885Z,9.7
2017-10-10T01:48:24.679Z,9.7
2017-10-10T01:49:27.099Z,9.7
2017-10-10T01:50:29.533Z,9.7
2017-10-10T01:51:31.956Z,9.7
2017-10-10T01:52:34.394Z,9.7
2017-10-10T01:53:36.822Z,9.7
2017-10-10T01:54:39.585Z,9.7
2017-10-10T01:55:42.020Z,9.6
2017-10-10T01:56:44.449Z,9.6
2017-10-10T01:57:47.243Z,9.7
2017-10-10T01:58:49.673Z,9.7
2017-10-10T01:59:52.105Z,9.7
2017-10-10T02:00:54.520Z,9.7
2017-10-10T02:01:56.951Z,9.7
2017-10-10T02:02:59.380Z,9.7
2017-10-10T02:04:01.791Z,9.6
2017-10-10T02:05:04.232Z,9.6
2017-10-10T02:06:06.656Z,9.7
2017-10-10T02:07:09.091Z,9.7
2017-10-10T02:08:11.527Z,9.6
2017-10-10T02:09:13.951Z,9.6
2017-10-10T02:10:16.386Z,9.6
2017-10-10T02:11:18.812Z,9.6
2017-10-10T02:12:21.591Z,9.6
2017-10-10T02:13:24.383Z,9.6
2017-10-10T02:14:27.145Z,9.6
2017-10-10T02:15:29.577Z,9.6
2017-10-10T02:16:32.002Z,9.6
2017-10-10T02:17:34.423Z,9.6
2017-10-10T02:18:36.864Z,9.6
2017-10-10T02:19:39.278Z,9.7
2017-10-10T02:20:41.711Z,9.7
2017-10-10T02:21:44.139Z,9.6
2017-10-10T02:22:46.576Z,9.6
2017-10-10T02:23:48.999Z,9.6
2017-10-10T02:24:51.435Z,9.6
2017-10-10T02:25:53.851Z,9.6
2017-10-10T02:26:56.289Z,9.6
2017-10-10T02:27:59.062Z,9.6
2017-10-10T02:29:01.495Z,9.6
2017-10-10T02:30:04.294Z,9.6
2017-10-10T02:31:06.721Z,9.6
2017-10-10T02:32:09.146Z,9.7
2017-10-10T02:33:11.573Z,9.7
2017-10-10T02:34:14.008Z,9.7
2017-10-10T02:35:16.440Z,9.7
2017-10-10T02:36:18.874Z,9.7
2017-10-10T02:37:21.662Z,9.7
2017-10-10T02:38:24.086Z,9.7
2017-10-10T02:39:26.521Z,9.7
2017-10-10T02:40:29.310Z,9.7
2017-10-10T02:41:31.732Z,9.6
2017-10-10T02:42:34.169Z,9.6
2017-10-10T02:43:37.314Z,9.6
2017-10-10T02:44:40.082Z,9.7
2017-10-10T02:45:42.518Z,9.7
2017-10-10T02:46:45.298Z,9.7
2017-10-10T02:47:47.734Z,9.7
2017-10-10T02:48:50.869Z,9.7
2017-10-10T02:49:53.297Z,9.7
2017-10-10T02:50:55.724Z,9.7
2017-10-10T02:51:58.173Z,9.7
2017-10-10T02:53:00.597Z,9.6
2017-10-10T02:54:03.011Z,9.6
2017-10-10T02:55:05.441Z,9.6
2017-10-10T02:56:07.872Z,9.6
2017-10-10T02:57:10.299Z,9.7
2017-10-10T02:58:12.733Z,9.7
2017-10-10T02:59:15.161Z,9.7
2017-10-10T03:00:17.584Z,9.7
2017-10-10T03:01:20.022Z,9.7
2017-10-10T03:02:22.452Z,9.7
2017-10-10T03:03:24.865Z,9.7
2017-10-10T03:04:27.324Z,9.7
2017-10-10T03:05:29.736Z,9.7
2017-10-10T03:06:32.163Z,9.7
2017-10-10T03:07:34.592Z,9.7
2017-10-10T03:08:37.382Z,9.7
2017-10-10T03:09:39.802Z,9.7
2017-10-10T03:10:42.245Z,9.7
2017-10-10T03:11:44.683Z,9.7
2017-10-10T03:12:47.140Z,9.7
2017-10-10T03:13:49.920Z,9.7
2017-10-10T03:14:52.345Z,9.7
2017-10-10T03:15:55.124Z,9.7
2017-10-10T03:16:57.565Z,9.7
2017-10-10T03:17:59.986Z,9.7
2017-10-10T03:19:02.413Z,9.7
2017-10-10T03:20:05.205Z,9.7
2017-10-10T03:21:07.985Z,9.7
2017-10-10T03:22:10.413Z,9.7
2017-10-10T03:23:12.837Z,9.7
2017-10-10T03:24:15.260Z,9.7
2017-10-10T03:25:17.687Z,9.7
2017-10-10T03:26:20.125Z,9.7
2017-10-10T03:27:22.544Z,9.7
2017-10-10T03:28:25.351Z,9.7
2017-10-10T03:29:27.783Z,9.7
2017-10-10T03:30:30.217Z,9.7
2017-10-10T03:31:32.999Z,9.7
2017-10-10T03:32:35.428Z,9.7
2017-10-10T03:33:37.856Z,9.7
2017-10-10T03:34:40.290Z,9.7
2017-10-10T03:35:42.716Z,9.7
2017-10-10T03:36:45.132Z,9.7
2017-10-10T03:37:47.562Z,9.7
2017-10-10T03:38:49.992Z,9.7
2017-10-10T03:39:52.418Z,9.7
2017-10-10T03:40:55.242Z,9.7
2017-10-10T03:41:57.657Z,9.7
2017-10-10T03:43:00.096Z,9.7
2017-10-10T03:44:02.533Z,9.7
2017-10-10T03:45:04.963Z,9.7
2017-10-10T03:46:07.394Z,9.7
2017-10-10T03:47:09.821Z,9.7
2017-10-10T03:48:12.241Z,9.7
2017-10-10T03:49:14.678Z,9.7
2017-10-10T03:50:17.092Z,9.7
2017-10-10T03:51:19.532Z,9.7
2017-10-10T03:52:21.959Z,9.7
2017-10-10T03:53:24.413Z,9.7
2017-10-10T03:54:27.187Z,9.7
2017-10-10T03:55:29.608Z,9.7
2017-10-10T03:56:32.042Z,9.7
2017-10-10T03:57:34.472Z,9.7
2017-10-10T03:58:36.902Z,9.7
2017-10-10T03:59:39.339Z,9.7
2017-10-10T04:00:41.756Z,9.7
2017-10-10T04:01:44.560Z,9.7
2017-10-10T04:02:47.011Z,9.7
2017-10-10T04:03:49.804Z,9.7
2017-10-10T04:04:52.232Z,9.7
2017-10-10T04:05:54.666Z,9.7
2017-10-10T04:06:57.094Z,9.7
2017-10-10T04:07:59.529Z,9.7
2017-10-10T04:09:01.960Z,9.7
2017-10-10T04:10:04.371Z,9.7
2017-10-10T04:11:07.171Z,9.7
2017-10-10T04:12:09.601Z,9.7
2017-10-10T04:13:12.039Z,9.7
2017-10-10T04:14:14.477Z,9.7
2017-10-10T04:15:16.929Z,9.7
2017-10-10T04:16:19.534Z,9.7
2017-10-10T04:17:21.944Z,9.7
2017-10-10T04:18:24.374Z,9.7
2017-10-10T04:19:26.796Z,9.7
2017-10-10T04:20:29.237Z,9.7
2017-10-10T04:21:32.037Z,9.7
2017-10-10T04:22:34.457Z,9.7
2017-10-10T04:23:36.894Z,9.6
2017-10-10T04:24:39.334Z,9.6
2017-10-10T04:25:41.762Z,9.7
2017-10-10T04:26:44.191Z,9.7
2017-10-10T04:27:47.006Z,9.7
2017-10-10T04:28:49.421Z,9.7
2017-10-10T04:29:51.844Z,9.7
2017-10-10T04:30:54.271Z,9.7
2017-10-10T04:31:57.049Z,9.7
2017-10-10T04:32:59.480Z,9.7
2017-10-10T04:34:01.904Z,9.6
2017-10-10T04:35:04.324Z,9.7
2017-10-10T04:36:06.757Z,9.6
2017-10-10T04:37:09.186Z,9.6
2017-10-10T04:38:11.972Z,9.6
2017-10-10T04:39:14.402Z,9.6
2017-10-10T04:40:16.838Z,9.6
2017-10-10T04:41:19.249Z,9.6
2017-10-10T04:42:22.070Z,9.6
2017-10-10T04:43:24.872Z,9.6
2017-10-10T04:44:27.292Z,9.6
2017-10-10T04:45:29.722Z,9.6
2017-10-10T04:46:32.506Z,9.6
2017-10-10T04:47:34.928Z,9.6
2017-10-10T04:48:37.364Z,9.6
2017-10-10T04:49:40.144Z,9.5
2017-10-10T04:50:42.565Z,9.6
2017-10-10T04:51:44.996Z,9.5
2017-10-10T04:52:47.433Z,9.5
2017-10-10T04:53:49.859Z,9.5
2017-10-10T04:54:52.297Z,9.5
2017-10-10T04:55:54.731Z,9.5
2017-10-10T04:56:57.517Z,9.5
2017-10-10T04:57:59.950Z,9.5
2017-10-10T04:59:02.377Z,9.5
2017-10-10T05:00:04.801Z,9.5
2017-10-10T05:01:07.233Z,9.5
2017-10-10T05:02:09.660Z,9.5
2017-10-10T05:03:12.083Z,9.5
2017-10-10T05:04:14.516Z,9.5
2017-10-10T05:05:16.950Z,9.5
2017-10-10T05:06:19.376Z,9.5
2017-10-10T05:07:21.815Z,9.5
2017-10-10T05:08:24.605Z,9.5
2017-10-10T05:09:27.040Z,9.5
2017-10-10T05:10:29.466Z,9.5
2017-10-10T05:11:31.899Z,9.5
2017-10-10T05:12:34.317Z,9.5
2017-10-10T05:13:36.748Z,9.5
2017-10-10T05:14:39.182Z,9.5
2017-10-10T05:15:41.613Z,9.5
2017-10-10T05:16:44.033Z,9.5
2017-10-10T05:17:46.467Z,9.5
2017-10-10T05:18:48.889Z,9.5
2017-10-10T05:19:51.323Z,9.5
2017-10-10T05:20:53.751Z,9.5
2017-10-10T05:21:56.183Z,9.5
2017-10-10T05:22:58.604Z,9.5
2017-10-10T05:24:01.037Z,9.5
2017-10-10T05:25:03.464Z,9.5
2017-10-10T05:26:05.900Z,9.5
2017-10-10T05:27:08.326Z,9.5
2017-10-10T05:28:10.748Z,9.5
2017-10-10T05:29:13.173Z,9.5
2017-10-10T05:30:15.599Z,9.5
2017-10-10T05:31:18.023Z,9.4
2017-10-10T05:32:20.468Z,9.4
2017-10-10T05:33:22.879Z,9.4
2017-10-10T05:34:25.310Z,9.4
2017-10-10T05:35:28.114Z,9.5
2017-10-10T05:36:30.908Z,9.5
2017-10-10T05:37:33.335Z,9.4
2017-10-10T05:38:35.769Z,9.4
2017-10-10T05:39:38.198Z,9.4
2017-10-10T05:40:40.610Z,9.4
2017-10-10T05:41:43.044Z,9.4
2017-10-10T05:42:45.481Z,9.4
2017-10-10T05:43:47.915Z,9.4
2017-10-10T05:44:50.695Z,9.4
2017-10-10T05:45:53.120Z,9.4
2017-10-10T05:46:55.548Z,9.4
2017-10-10T05:47:58.330Z,9.4
2017-10-10T05:49:00.751Z,9.4
2017-10-10T05:50:03.168Z,9.4
2017-10-10T05:51:05.594Z,9.4
2017-10-10T05:52:08.378Z,9.4
2017-10-10T05:53:10.804Z,9.4
2017-10-10T05:54:13.234Z,9.4
2017-10-10T05:55:16.006Z,9.4
2017-10-10T05:56:18.433Z,9.4
2017-10-10T05:57:20.865Z,9.4
2017-10-10T05:58:23.288Z,9.4
2017-10-10T05:59:25.712Z,9.4
2017-10-10T06:00:28.148Z,9.4
2017-10-10T06:01:30.569Z,9.4
2017-10-10T06:02:33.012Z,9.4
2017-10-10T06:03:35.438Z,9.4
2017-10-10T06:04:37.856Z,9.4
2017-10-10T06:05:40.284Z,9.5
2017-10-10T06:06:42.713Z,9.5
2017-10-10T06:07:45.137Z,9.4
2017-10-10T06:08:47.560Z,9.4
2017-10-10T06:09:50.097Z,9.4
2017-10-10T06:10:52.517Z,9.4
2017-10-10T06:11:54.943Z,9.4
2017-10-10T06:12:57.369Z,9.4
2017-10-10T06:13:59.809Z,9.4
2017-10-10T06:15:02.580Z,9.4
2017-10-10T06:16:05.363Z,9.4
2017-10-10T06:17:07.789Z,9.4
2017-10-10T06:18:10.208Z,9.4
2017-10-10T06:19:12.635Z,9.4
2017-10-10T06:20:15.064Z,9.5
2017-10-10T06:21:17.495Z,9.4
2017-10-10T06:22:19.934Z,9.5
2017-10-10T06:23:22.361Z,9.4
2017-10-10T06:24:25.137Z,9.4
2017-10-10T06:25:27.571Z,9.5
2017-10-10T06:26:29.992Z,9.4
2017-10-10T06:27:32.416Z,9.4
2017-10-10T06:28:34.862Z,9.4
2017-10-10T06:29:37.279Z,9.4
2017-10-10T06:30:39.712Z,9.4
2017-10-10T06:31:42.141Z,9.4
2017-10-10T06:32:44.570Z,9.4
2017-10-10T06:33:47.339Z,9.4
2017-10-10T06:34:49.775Z,9.5
2017-10-10T06:35:52.191Z,9.5
2017-10-10T06:36:54.983Z,9.5
2017-10-10T06:37:57.416Z,9.5
2017-10-10T06:38:59.851Z,9.5
2017-10-10T06:40:02.275Z,9.5
2017-10-10T06:41:04.702Z,9.5
2017-10-10T06:42:07.130Z,9.5
2017-10-10T06:43:09.565Z,9.5
2017-10-10T06:44:11.987Z,9.5
2017-10-10T06:45:14.414Z,9.5
2017-10-10T06:46:17.188Z,9.5
2017-10-10T06:47:19.610Z,9.5
2017-10-10T06:48:22.043Z,9.5
2017-10-10T06:49:24.824Z,9.5
2017-10-10T06:50:27.254Z,9.5
2017-10-10T06:51:29.683Z,9.5
2017-10-10T06:52:32.111Z,9.6
2017-10-10T06:53:34.538Z,9.6
2017-10-10T06:54:36.970Z,9.6
2017-10-10T06:55:39.394Z,9.6
2017-10-10T06:56:42.205Z,9.6
2017-10-10T06:57:44.623Z,9.6
2017-10-10T06:58:47.045Z,9.6
2017-10-10T06:59:49.477Z,9.6
2017-10-10T07:00:51.906Z,9.6
2017-10-10T07:01:54.333Z,9.6
2017-10-10T07:02:56.762Z,9.6
2017-10-10T07:03:59.172Z,9.7
2017-10-10T07:05:01.599Z,9.7
2017-10-10T07:06:04.028Z,9.7
2017-10-10T07:07:06.456Z,9.7
2017-10-10T07:08:08.892Z,9.7
2017-10-10T07:09:11.656Z,9.7
2017-10-10T07:10:14.434Z,9.7
2017-10-10T07:11:16.855Z,9.7
2017-10-10T07:12:19.278Z,9.7
2017-10-10T07:13:21.721Z,9.8
2017-10-10T07:14:24.148Z,9.8
2017-10-10T07:15:26.566Z,9.8
2017-10-10T07:16:28.994Z,9.8
2017-10-10T07:17:31.425Z,9.8
2017-10-10T07:18:33.854Z,9.8
2017-10-10T07:19:36.653Z,9.9
2017-10-10T07:20:39.066Z,9.9
2017-10-10T07:21:41.497Z,9.9
2017-10-10T07:22:43.930Z,9.9
2017-10-10T07:23:46.729Z,10
2017-10-10T07:24:49.506Z,10
2017-10-10T07:25:51.938Z,10
2017-10-10T07:26:54.362Z,10
2017-10-10T07:27:56.798Z,10
2017-10-10T07:28:59.224Z,10
2017-10-10T07:30:01.648Z,10.1
2017-10-10T07:31:04.076Z,10.1
2017-10-10T07:32:06.503Z,10.1
2017-10-10T07:33:08.927Z,10.1
2017-10-10T07:34:11.361Z,10.2
2017-10-10T07:35:13.776Z,10.2
2017-10-10T07:36:16.210Z,10.2
2017-10-10T07:37:18.649Z,10.3
2017-10-10T07:38:21.427Z,10.3
2017-10-10T07:39:23.867Z,10.4
2017-10-10T07:40:26.290Z,10.4
2017-10-10T07:41:28.715Z,10.5
2017-10-10T07:42:31.147Z,10.5
2017-10-10T07:43:33.574Z,10.5
2017-10-10T07:44:36.018Z,10.5
2017-10-10T07:45:38.464Z,10.6
2017-10-10T07:46:40.890Z,10.6
2017-10-10T07:47:43.340Z,10.6
2017-10-10T07:48:45.786Z,10.7
2017-10-10T07:49:48.225Z,10.7
2017-10-10T07:50:50.660Z,10.7
2017-10-10T07:51:53.095Z,10.7
2017-10-10T07:52:55.535Z,10.8
2017-10-10T07:53:57.997Z,10.8
2017-10-10T07:55:00.438Z,10.8
2017-10-10T07:56:02.887Z,10.8
2017-10-10T07:57:05.324Z,10.8
2017-10-10T07:58:08.107Z,10.8
2017-10-10T07:59:10.537Z,10.9
2017-10-10T08:00:12.972Z,10.9
2017-10-10T08:01:15.396Z,10.9
2017-10-10T08:02:17.829Z,10.9
2017-10-10T08:03:20.651Z,11
2017-10-10T08:04:23.087Z,11
2017-10-10T08:05:25.524Z,11.1
2017-10-10T08:06:27.965Z,11.1
2017-10-10T08:07:30.751Z,11.1
2017-10-10T08:08:33.182Z,11.1
2017-10-10T08:09:35.982Z,11.1
2017-10-10T08:10:38.426Z,11.1
2017-10-10T08:11:40.848Z,11.2
2017-10-10T08:12:43.627Z,11.2
2017-10-10T08:13:46.060Z,11.3
2017-10-10T08:14:48.502Z,11.3
2017-10-10T08:15:50.928Z,11.3
2017-10-10T08:16:53.369Z,11.3
2017-10-10T08:17:56.138Z,11.3
2017-10-10T08:18:58.574Z,11.3
2017-10-10T08:20:01.003Z,11.4
2017-10-10T08:21:03.793Z,11.4
2017-10-10T08:22:06.224Z,11.4
2017-10-10T08:23:08.649Z,11.5
2017-10-10T08:24:11.080Z,11.5
2017-10-10T08:25:13.530Z,11.5
2017-10-10T08:26:15.950Z,11.5
2017-10-10T08:27:18.372Z,11.5
2017-10-10T08:28:20.803Z,11.6
2017-10-10T08:29:23.235Z,11.6
2017-10-10T08:30:25.671Z,11.6
2017-10-10T08:31:28.097Z,11.6
2017-10-10T08:32:30.523Z,11.6
2017-10-10T08:33:32.959Z,11.7
2017-10-10T08:34:35.391Z,11.6
2017-10-10T08:35:37.824Z,11.7
2017-10-10T08:36:40.252Z,11.7
2017-10-10T08:37:42.679Z,11.7
2017-10-10T08:38:45.110Z,11.7
2017-10-10T08:39:47.924Z,11.8
2017-10-10T08:40:50.355Z,11.8
2017-10-10T08:41:52.793Z,11.8
2017-10-10T08:42:55.234Z,11.8
2017-10-10T08:43:57.667Z,11.8
2017-10-10T08:45:00.496Z,11.8
2017-10-10T08:46:02.943Z,11.9
2017-10-10T08:47:05.374Z,11.9
2017-10-10T08:48:07.808Z,11.9
2017-10-10T08:49:10.243Z,11.9
2017-10-10T08:50:12.666Z,11.9
2017-10-10T08:51:15.109Z,11.9
2017-10-10T08:52:17.526Z,11.9
2017-10-10T08:53:19.957Z,11.9
2017-10-10T08:54:22.383Z,11.9
2017-10-10T08:55:24.820Z,11.9
2017-10-10T08:56:27.244Z,11.9
2017-10-10T08:57:29.675Z,11.9
2017-10-10T08:58:32.089Z,11.9
2017-10-10T08:59:34.542Z,11.9
2017-10-10T09:00:36.967Z,12
2017-10-10T09:01:39.407Z,12
2017-10-10T09:02:41.844Z,12
2017-10-10T09:03:44.277Z,12
2017-10-10T09:04:46.710Z,12
2017-10-10T09:05:49.147Z,12
2017-10-10T09:06:51.575Z,12
2017-10-10T09:07:54.032Z,12.1
2017-10-10T09:08:56.488Z,12.1
2017-10-10T09:09:59.690Z,12.1
2017-10-10T09:11:02.145Z,12.1
2017-10-10T09:12:04.599Z,12.1
2017-10-10T09:13:07.393Z,12.2
2017-10-10T09:14:09.838Z,12.2
2017-10-10T09:15:12.297Z,12.2
2017-10-10T09:16:14.729Z,12.3
2017-10-10T09:17:17.150Z,12.3
2017-10-10T09:18:19.588Z,12.3
2017-10-10T09:19:22.025Z,12.3
2017-10-10T09:20:24.828Z,12.3
2017-10-10T09:21:27.261Z,12.4
2017-10-10T09:22:29.691Z,12.4
2017-10-10T09:23:32.114Z,12.4
2017-10-10T09:24:34.564Z,12.4
2017-10-10T09:25:37.371Z,12.4
2017-10-10T09:26:39.808Z,12.4
2017-10-10T09:27:42.247Z,12.5
2017-10-10T09:28:44.696Z,12.5
2017-10-10T09:29:47.163Z,12.5
2017-10-10T09:30:49.620Z,12.6
2017-10-10T09:31:52.075Z,12.6
2017-10-10T09:32:54.535Z,12.6
2017-10-10T09:33:57.000Z,12.6
2017-10-10T09:34:59.453Z,12.6
2017-10-10T09:36:02.252Z,12.6
2017-10-10T09:37:04.696Z,12.6
2017-10-10T09:38:07.133Z,12.6
2017-10-10T09:39:10.326Z,12.7
2017-10-10T09:40:12.777Z,12.7
2017-10-10T09:41:15.239Z,12.7
2017-10-10T09:42:18.034Z,12.7
2017-10-10T09:43:20.462Z,12.8
2017-10-10T09:44:22.902Z,12.8
2017-10-10T09:45:25.368Z,12.8
2017-10-10T09:46:27.828Z,12.9
2017-10-10T09:47:30.295Z,12.9
2017-10-10T09:48:32.745Z,12.9
2017-10-10T09:49:35.217Z,12.9
2017-10-10T09:50:37.672Z,12.9
2017-10-10T09:51:40.133Z,12.9
2017-10-10T09:52:42.588Z,12.9
2017-10-10T09:53:45.043Z,13
2017-10-10T09:54:47.509Z,13
2017-10-10T09:55:49.969Z,13.1
2017-10-10T09:56:52.783Z,13.1
2017-10-10T09:57:55.227Z,13.1
2017-10-10T09:58:57.664Z,13.2
2017-10-10T10:00:00.086Z,13.1
2017-10-10T10:01:02.875Z,13.1
2017-10-10T10:02:05.308Z,13.2
2017-10-10T10:03:08.092Z,13.2
2017-10-10T10:04:10.523Z,13.3
2017-10-10T10:05:12.962Z,13.4
2017-10-10T10:06:15.769Z,13.3
2017-10-10T10:07:18.210Z,13.3
2017-10-10T10:08:20.635Z,13.4
2017-10-10T10:09:23.427Z,13.4
2017-10-10T10:10:25.859Z,13.6
2017-10-10T10:11:28.653Z,13.6
2017-10-10T10:12:31.089Z,13.7
2017-10-10T10:13:33.516Z,13.8
2017-10-10T10:14:35.956Z,13.8
2017-10-10T10:15:38.397Z,13.8
2017-10-10T10:16:41.183Z,13.8
2017-10-10T10:17:44.039Z,13.8
2017-10-10T10:18:46.472Z,13.8
2017-10-10T10:19:48.904Z,13.8
2017-10-10T10:20:51.345Z,13.8
2017-10-10T10:21:53.782Z,13.8
2017-10-10T10:22:56.216Z,13.8
2017-10-10T10:23:58.666Z,13.9
2017-10-10T10:25:01.096Z,13.9
2017-10-10T10:26:03.522Z,13.9
2017-10-10T10:27:05.955Z,13.9
2017-10-10T10:28:08.392Z,13.9
2017-10-10T10:29:10.831Z,14
2017-10-10T10:30:13.262Z,13.9
2017-10-10T10:31:16.044Z,13.9
2017-10-10T10:32:18.840Z,13.9
2017-10-10T10:33:21.286Z,13.9
2017-10-10T10:34:24.074Z,13.9
2017-10-10T10:35:26.507Z,13.9
2017-10-10T10:36:28.944Z,13.8
2017-10-10T10:37:31.386Z,13.7
2017-10-10T10:38:33.813Z,13.9
2017-10-10T10:39:36.603Z,13.9
2017-10-10T10:40:39.043Z,13.9
2017-10-10T10:41:41.473Z,14
2017-10-10T10:42:43.901Z,13.9
2017-10-10T10:43:46.341Z,13.9
2017-10-10T10:44:48.772Z,13.9
2017-10-10T10:45:51.214Z,13.9
2017-10-10T10:46:53.649Z,13.9
2017-10-10T10:47:56.077Z,13.9
2017-10-10T10:48:58.513Z,13.9
2017-10-10T10:50:00.946Z,13.9
2017-10-10T10:51:03.384Z,13.9
2017-10-10T10:52:05.822Z,13.9
2017-10-10T10:53:08.260Z,13.9
2017-10-10T10:54:10.703Z,13.9
2017-10-10T10:55:13.488Z,13.9
2017-10-10T10:56:15.925Z,13.9
2017-10-10T10:57:18.356Z,13.9
2017-10-10T10:58:20.797Z,14
2017-10-10T10:59:23.225Z,14
2017-10-10T11:00:25.664Z,14
2017-10-10T11:01:28.101Z,14
2017-10-10T11:02:30.539Z,13.9
2017-10-10T11:03:32.973Z,13.8
2017-10-10T11:04:35.403Z,13.8
2017-10-10T11:05:37.846Z,13.8
2017-10-10T11:06:40.274Z,13.8
2017-10-10T11:07:42.702Z,13.8
2017-10-10T11:08:45.143Z,13.8
2017-10-10T11:09:47.574Z,13.8
2017-10-10T11:10:50.006Z,13.7
2017-10-10T11:11:52.446Z,13.7
2017-10-10T11:12:54.866Z,13.7
2017-10-10T11:13:57.312Z,13.7
2017-10-10T11:14:59.749Z,13.8
2017-10-10T11:16:02.186Z,13.8
2017-10-10T11:17:04.617Z,13.8
2017-10-10T11:18:07.056Z,13.8
2017-10-10T11:19:09.485Z,13.9
2017-10-10T11:20:11.927Z,13.8
2017-10-10T11:21:14.352Z,13.8
2017-10-10T11:22:16.788Z,13.8
2017-10-10T11:23:19.238Z,13.8
2017-10-10T11:24:21.663Z,13.8
2017-10-10T11:25:24.096Z,13.8
2017-10-10T11:26:26.523Z,13.9
2017-10-10T11:27:28.965Z,13.9
2017-10-10T11:28:31.405Z,13.8
2017-10-10T11:29:34.201Z,13.8
2017-10-10T11:30:36.624Z,13.8
2017-10-10T11:31:39.065Z,13.9
2017-10-10T11:32:41.504Z,13.8
2017-10-10T11:33:43.931Z,13.8
2017-10-10T11:34:46.357Z,13.8
2017-10-10T11:35:48.794Z,13.8
2017-10-10T11:36:51.214Z,13.8
2017-10-10T11:37:53.665Z,13.8
2017-10-10T11:38:56.094Z,13.8
2017-10-10T11:39:58.890Z,13.8
2017-10-10T11:41:01.323Z,13.8
2017-10-10T11:42:03.767Z,13.8
2017-10-10T11:43:06.581Z,13.8
2017-10-10T11:44:09.016Z,13.9
2017-10-10T11:45:11.438Z,14
2017-10-10T11:46:13.870Z,14
2017-10-10T11:47:16.312Z,14.1
2017-10-10T11:48:18.738Z,14.1
2017-10-10T11:49:21.168Z,14.2
2017-10-10T11:50:23.601Z,14.3
2017-10-10T11:51:26.032Z,14.3
2017-10-10T11:52:28.827Z,14.3
2017-10-10T11:53:31.254Z,14.3
2017-10-10T11:54:33.688Z,14.4
2017-10-10T11:55:36.135Z,14.3
2017-10-10T11:56:38.575Z,14.3
2017-10-10T11:57:41.011Z,14.3
2017-10-10T11:58:43.441Z,14.3
2017-10-10T11:59:45.889Z,14.2
2017-10-10T12:00:48.325Z,14.2
2017-10-10T12:01:50.762Z,14.2
2017-10-10T12:02:53.195Z,14.2
2017-10-10T12:03:55.619Z,14.2
2017-10-10T12:04:58.416Z,14.2
2017-10-10T12:06:01.212Z,14.2
2017-10-10T12:07:04.013Z,14.1
2017-10-10T12:08:06.438Z,14.1
2017-10-10T12:09:08.887Z,14.1
2017-10-10T12:10:11.321Z,14.2
2017-10-10T12:11:13.741Z,14.2
2017-10-10T12:12:16.186Z,14.1
2017-10-10T12:13:18.606Z,14.1
2017-10-10T12:14:21.036Z,14.1
2017-10-10T12:15:23.825Z,14
2017-10-10T12:16:26.254Z,14
2017-10-10T12:17:28.686Z,14
2017-10-10T12:18:31.128Z,14
2017-10-10T12:19:33.549Z,13.9
2017-10-10T12:20:35.994Z,13.9
2017-10-10T12:21:38.432Z,13.9
2017-10-10T12:22:40.851Z,13.9
2017-10-10T12:23:43.292Z,13.9
2017-10-10T12:24:45.732Z,13.8
2017-10-10T12:25:48.162Z,13.8
2017-10-10T12:26:50.605Z,13.8
2017-10-10T12:27:53.383Z,13.8
2017-10-10T12:28:56.175Z,13.7
2017-10-10T12:29:58.607Z,13.7
2017-10-10T12:31:01.400Z,13.7
2017-10-10T12:32:03.827Z,13.7
2017-10-10T12:33:06.252Z,13.7
2017-10-10T12:34:08.699Z,13.7
2017-10-10T12:35:11.113Z,13.7
2017-10-10T12:36:13.554Z,13.7
2017-10-10T12:37:16.000Z,13.7
2017-10-10T12:38:18.432Z,13.7
2017-10-10T12:39:20.872Z,13.7
2017-10-10T12:40:23.308Z,13.7
2017-10-10T12:41:25.738Z,13.6
2017-10-10T12:42:28.179Z,13.6
2017-10-10T12:43:30.610Z,13.7
2017-10-10T12:44:33.033Z,13.7
2017-10-10T12:45:35.470Z,13.6
2017-10-10T12:46:37.902Z,13.6
2017-10-10T12:47:40.343Z,13.6
2017-10-10T12:48:42.773Z,13.6
2017-10-10T12:49:45.205Z,13.6
2017-10-10T12:50:47.638Z,13.6
2017-10-10T12:51:50.077Z,13.6
2017-10-10T12:52:52.511Z,13.5
2017-10-10T12:53:54.949Z,13.5
2017-10-10T12:54:57.376Z,13.6
2017-10-10T12:55:59.815Z,13.5
2017-10-10T12:57:02.272Z,13.5
2017-10-10T12:58:04.706Z,13.6
2017-10-10T12:59:07.146Z,13.6
2017-10-10T13:00:09.935Z,13.6
2017-10-10T13:01:12.376Z,13.6
2017-10-10T13:02:14.816Z,13.6
2017-10-10T13:03:17.242Z,13.6
2017-10-10T13:04:19.678Z,13.5
2017-10-10T13:05:22.119Z,13.6
2017-10-10T13:06:24.546Z,13.6
2017-10-10T13:07:26.983Z,13.6
2017-10-10T13:08:29.433Z,13.6
2017-10-10T13:09:31.856Z,13.6
2017-10-10T13:10:34.283Z,13.6
2017-10-10T13:11:36.716Z,13.6
2017-10-10T13:12:39.497Z,13.6
2017-10-10T13:13:41.929Z,13.6
2017-10-10T13:14:44.359Z,13.7
2017-10-10T13:15:46.784Z,13.7
2017-10-10T13:16:49.228Z,13.7
2017-10-10T13:17:51.657Z,13.7
2017-10-10T13:19:45.376Z,13.8
2017-10-10T13:20:47.778Z,13.9
2017-10-10T13:21:50.502Z,13.9
2017-10-10T13:22:52.877Z,14
2017-10-10T13:23:55.252Z,14.1
2017-10-10T13:24:57.639Z,14.2
2017-10-10T13:26:00.020Z,14.2
2017-10-10T13:27:02.409Z,14.3
2017-10-10T13:28:04.986Z,14.3
2017-10-10T13:29:07.367Z,14.4
2017-10-10T13:30:09.757Z,14.4
2017-10-10T13:31:12.128Z,14.5
2017-10-10T13:32:14.504Z,14.5
2017-10-10T13:33:16.889Z,14.5
2017-10-10T13:34:19.972Z,14.5
2017-10-10T13:35:22.364Z,14.5
2017-10-10T13:36:24.755Z,14.5
2017-10-10T13:37:27.123Z,14.5
2017-10-10T13:38:29.511Z,14.5
2017-10-10T13:39:31.896Z,14.6
2017-10-10T13:40:34.283Z,14.5
2017-10-10T13:41:36.659Z,14.5
2017-10-10T13:42:39.040Z,14.6
2017-10-10T13:43:41.761Z,14.5
2017-10-10T13:44:44.161Z,14.4
2017-10-10T13:45:46.535Z,14.4
2017-10-10T13:46:48.915Z,14.4
2017-10-10T13:47:51.305Z,14.4
2017-10-10T13:48:53.691Z,14.4
2017-10-10T13:49:56.072Z,14.4
2017-10-10T13:50:58.452Z,14.4
2017-10-10T13:52:00.823Z,14.4
2017-10-10T13:53:03.199Z,14.4
2017-10-10T13:54:05.588Z,14.4
2017-10-10T13:55:07.976Z,14.4
2017-10-10T13:56:10.349Z,14.4
2017-10-10T13:57:12.734Z,14.4
2017-10-10T13:58:15.459Z,14.4
2017-10-10T13:59:17.857Z,14.3
2017-10-10T14:00:20.238Z,14.3
2017-10-10T14:01:22.607Z,14.3
2017-10-10T14:02:24.988Z,14.4
2017-10-10T14:03:27.372Z,14.3
2017-10-10T14:04:29.773Z,14.3
2017-10-10T14:05:32.148Z,14.3
2017-10-10T14:06:34.906Z,14.3
2017-10-10T14:07:37.295Z,14.3
2017-10-10T14:08:39.672Z,14.2